sensor_id;sensor_type;location;lat;lon;timestamp;pressure;altitude;pressure_sealevel;temperature;humidity
57644;BME280;43474;46.510;6.686;2023-05-14T00:01:11;96355.34;;;11.42;100.00
57644;BME280;43474;46.510;6.686;2023-05-14T00:03:37;96336.06;;;11.30;100.00
57644;BME280;43474;46.510;6.686;2023-05-14T00:06:04;96345.69;;;11.36;100.00
57644;BME280;43474;46.510;6.686;2023-05-14T00:08:29;96329.44;;;11.32;100.00
57644;BME280;43474;46.510;6.686;2023-05-14T00:10:55;96335.88;;;11.36;100.00
57644;BME280;43474;46.510;6.686;2023-05-14T00:13:20;96333.97;;;11.32;100.00
57644;BME280;43474;46.510;6.686;2023-05-14T00:15:46;96339.28;;;11.32;100.00
57644;BME280;43474;46.510;6.686;2023-05-14T00:18:11;96329.38;;;11.27;100.00
57644;BME280;43474;46.510;6.686;2023-05-14T00:20:37;96323.19;;;11.22;100.00
57644;BME280;43474;46.510;6.686;2023-05-14T00:23:03;96328.44;;;11.17;100.00
57644;BME280;43474;46.510;6.686;2023-05-14T00:25:28;96327.38;;;11.18;100.00
57644;BME280;43474;46.510;6.686;2023-05-14T00:27:54;96343.03;;;11.36;100.00
57644;BME280;43474;46.510;6.686;2023-05-14T00:30:20;96334.38;;;11.41;100.00
57644;BME280;43474;46.510;6.686;2023-05-14T00:32:45;96339.59;;;11.35;100.00
57644;BME280;43474;46.510;6.686;2023-05-14T00:35:11;96321.41;;;11.27;100.00
57644;BME280;43474;46.510;6.686;2023-05-14T00:37:36;96320.94;;;11.30;100.00
57644;BME280;43474;46.510;6.686;2023-05-14T00:40:02;96317.09;;;11.21;100.00
57644;BME280;43474;46.510;6.686;2023-05-14T00:42:28;96311.97;;;11.15;100.00
57644;BME280;43474;46.510;6.686;2023-05-14T00:44:54;96312.78;;;11.15;100.00
57644;BME280;43474;46.510;6.686;2023-05-14T00:47:19;96315.72;;;11.19;100.00
57644;BME280;43474;46.510;6.686;2023-05-14T00:49:45;96316.22;;;11.16;100.00
57644;BME280;43474;46.510;6.686;2023-05-14T00:52:11;96298.78;;;11.20;100.00
57644;BME280;43474;46.510;6.686;2023-05-14T00:54:37;96290.41;;;11.11;100.00
57644;BME280;43474;46.510;6.686;2023-05-14T00:57:05;96297.56;;;11.10;100.00
57644;BME280;43474;46.510;6.686;2023-05-14T00:59:31;96283.66;;;11.03;100.00
57644;BME280;43474;46.510;6.686;2023-05-14T01:01:56;96284.47;;;11.04;100.00
57644;BME280;43474;46.510;6.686;2023-05-14T01:04:22;96278.06;;;11.00;100.00
57644;BME280;43474;46.510;6.686;2023-05-14T01:09:43;96292.91;;;11.01;100.00
57644;BME280;43474;46.510;6.686;2023-05-14T01:17:10;96280.22;;;11.03;100.00
57644;BME280;43474;46.510;6.686;2023-05-14T01:19:41;96265.44;;;10.90;100.00
57644;BME280;43474;46.510;6.686;2023-05-14T01:22:07;96293.47;;;11.03;100.00
57644;BME280;43474;46.510;6.686;2023-05-14T01:24:33;96274.28;;;10.96;100.00
57644;BME280;43474;46.510;6.686;2023-05-14T01:29:42;96274.22;;;10.91;100.00
57644;BME280;43474;46.510;6.686;2023-05-14T01:32:11;96287.22;;;10.92;100.00
57644;BME280;43474;46.510;6.686;2023-05-14T01:34:38;96276.94;;;10.96;100.00
57644;BME280;43474;46.510;6.686;2023-05-14T01:37:05;96287.03;;;10.99;100.00
57644;BME280;43474;46.510;6.686;2023-05-14T01:39:31;96279.00;;;10.94;100.00
57644;BME280;43474;46.510;6.686;2023-05-14T01:41:58;96288.66;;;11.00;100.00
57644;BME280;43474;46.510;6.686;2023-05-14T01:44:25;96283.22;;;10.90;100.00
57644;BME280;43474;46.510;6.686;2023-05-14T01:46:51;96280.84;;;10.93;100.00
57644;BME280;43474;46.510;6.686;2023-05-14T01:49:17;96258.31;;;10.91;100.00
57644;BME280;43474;46.510;6.686;2023-05-14T01:51:44;96286.38;;;11.08;100.00
57644;BME280;43474;46.510;6.686;2023-05-14T01:54:09;96288.09;;;11.15;100.00
57644;BME280;43474;46.510;6.686;2023-05-14T01:56:37;96273.78;;;10.99;100.00
57644;BME280;43474;46.510;6.686;2023-05-14T01:59:03;96276.75;;;11.02;100.00
57644;BME280;43474;46.510;6.686;2023-05-14T02:01:28;96265.53;;;10.95;100.00
57644;BME280;43474;46.510;6.686;2023-05-14T02:03:54;96274.84;;;10.98;100.00
57644;BME280;43474;46.510;6.686;2023-05-14T02:06:19;96270.75;;;10.90;100.00
57644;BME280;43474;46.510;6.686;2023-05-14T02:08:45;96281.34;;;10.90;100.00
57644;BME280;43474;46.510;6.686;2023-05-14T02:11:11;96287.72;;;10.89;100.00
57644;BME280;43474;46.510;6.686;2023-05-14T02:13:36;96279.66;;;10.84;100.00
57644;BME280;43474;46.510;6.686;2023-05-14T02:16:02;96272.19;;;10.81;100.00
57644;BME280;43474;46.510;6.686;2023-05-14T02:18:27;96282.88;;;10.86;100.00
57644;BME280;43474;46.510;6.686;2023-05-14T02:20:53;96269.13;;;10.72;100.00
57644;BME280;43474;46.510;6.686;2023-05-14T02:23:18;96258.72;;;10.66;100.00
57644;BME280;43474;46.510;6.686;2023-05-14T02:25:44;96279.56;;;10.62;100.00
57644;BME280;43474;46.510;6.686;2023-05-14T02:28:09;96278.94;;;10.72;100.00
57644;BME280;43474;46.510;6.686;2023-05-14T02:30:35;96240.63;;;10.46;100.00
57644;BME280;43474;46.510;6.686;2023-05-14T02:33:00;96260.13;;;10.56;100.00
57644;BME280;43474;46.510;6.686;2023-05-14T02:35:26;96264.63;;;10.56;100.00
57644;BME280;43474;46.510;6.686;2023-05-14T02:37:52;96277.00;;;10.67;100.00
57644;BME280;43474;46.510;6.686;2023-05-14T02:40:18;96243.53;;;10.44;100.00
57644;BME280;43474;46.510;6.686;2023-05-14T02:42:44;96274.34;;;10.67;100.00
57644;BME280;43474;46.510;6.686;2023-05-14T02:45:09;96264.88;;;10.54;100.00
57644;BME280;43474;46.510;6.686;2023-05-14T02:47:35;96268.88;;;10.57;100.00
57644;BME280;43474;46.510;6.686;2023-05-14T02:50:00;96271.00;;;10.55;100.00
57644;BME280;43474;46.510;6.686;2023-05-14T02:52:26;96267.53;;;10.54;100.00
57644;BME280;43474;46.510;6.686;2023-05-14T02:54:52;96267.03;;;10.57;100.00
57644;BME280;43474;46.510;6.686;2023-05-14T02:57:17;96255.31;;;10.53;100.00
57644;BME280;43474;46.510;6.686;2023-05-14T02:59:43;96251.41;;;10.56;100.00
57644;BME280;43474;46.510;6.686;2023-05-14T03:02:08;96256.94;;;10.54;100.00
57644;BME280;43474;46.510;6.686;2023-05-14T03:04:34;96263.22;;;10.65;100.00
57644;BME280;43474;46.510;6.686;2023-05-14T03:06:59;96258.84;;;10.59;100.00
57644;BME280;43474;46.510;6.686;2023-05-14T03:09:25;96243.44;;;10.56;100.00
57644;BME280;43474;46.510;6.686;2023-05-14T03:11:50;96257.03;;;10.59;100.00
57644;BME280;43474;46.510;6.686;2023-05-14T03:14:16;96241.09;;;10.43;100.00
57644;BME280;43474;46.510;6.686;2023-05-14T03:16:41;96257.25;;;10.58;100.00
57644;BME280;43474;46.510;6.686;2023-05-14T03:19:07;96243.53;;;10.44;100.00
57644;BME280;43474;46.510;6.686;2023-05-14T03:21:34;96258.47;;;10.50;100.00
57644;BME280;43474;46.510;6.686;2023-05-14T03:24:00;96246.66;;;10.41;100.00
57644;BME280;43474;46.510;6.686;2023-05-14T03:26:25;96257.06;;;10.48;100.00
57644;BME280;43474;46.510;6.686;2023-05-14T03:28:51;96248.00;;;10.44;100.00
57644;BME280;43474;46.510;6.686;2023-05-14T03:31:16;96243.84;;;10.48;100.00
57644;BME280;43474;46.510;6.686;2023-05-14T03:33:42;96256.69;;;10.56;100.00
57644;BME280;43474;46.510;6.686;2023-05-14T03:36:08;96245.03;;;10.57;100.00
57644;BME280;43474;46.510;6.686;2023-05-14T03:38:33;96238.22;;;10.44;100.00
57644;BME280;43474;46.510;6.686;2023-05-14T03:40:59;96250.25;;;10.52;100.00
57644;BME280;43474;46.510;6.686;2023-05-14T03:43:25;96241.69;;;10.45;100.00
57644;BME280;43474;46.510;6.686;2023-05-14T03:45:50;96241.19;;;10.48;100.00
57644;BME280;43474;46.510;6.686;2023-05-14T03:48:17;96245.34;;;10.44;100.00
57644;BME280;43474;46.510;6.686;2023-05-14T03:50:43;96240.03;;;10.44;100.00
57644;BME280;43474;46.510;6.686;2023-05-14T03:53:09;96250.50;;;10.50;100.00
57644;BME280;43474;46.510;6.686;2023-05-14T03:55:34;96251.22;;;10.46;100.00
57644;BME280;43474;46.510;6.686;2023-05-14T03:58:01;96232.50;;;10.35;100.00
57644;BME280;43474;46.510;6.686;2023-05-14T04:00:27;96253.78;;;10.41;100.00
57644;BME280;43474;46.510;6.686;2023-05-14T04:02:53;96239.25;;;10.43;100.00
57644;BME280;43474;46.510;6.686;2023-05-14T04:05:19;96234.66;;;10.39;100.00
57644;BME280;43474;46.510;6.686;2023-05-14T04:07:45;96254.69;;;10.46;100.00
57644;BME280;43474;46.510;6.686;2023-05-14T04:10:11;96234.03;;;10.31;100.00
57644;BME280;43474;46.510;6.686;2023-05-14T04:12:37;96250.56;;;10.39;100.00
57644;BME280;43474;46.510;6.686;2023-05-14T04:15:03;96256.19;;;10.42;100.00
57644;BME280;43474;46.510;6.686;2023-05-14T04:17:28;96237.41;;;10.44;100.00
57644;BME280;43474;46.510;6.686;2023-05-14T04:19:54;96236.47;;;10.50;100.00
57644;BME280;43474;46.510;6.686;2023-05-14T04:22:20;96229.69;;;10.42;100.00
57644;BME280;43474;46.510;6.686;2023-05-14T04:24:45;96240.13;;;10.49;100.00
57644;BME280;43474;46.510;6.686;2023-05-14T04:27:18;96243.91;;;10.53;100.00
57644;BME280;43474;46.510;6.686;2023-05-14T04:29:45;96237.09;;;10.40;100.00
57644;BME280;43474;46.510;6.686;2023-05-14T04:32:10;96244.97;;;10.52;100.00
57644;BME280;43474;46.510;6.686;2023-05-14T04:34:36;96246.97;;;10.61;100.00
57644;BME280;43474;46.510;6.686;2023-05-14T04:37:02;96244.00;;;10.58;100.00
57644;BME280;43474;46.510;6.686;2023-05-14T04:39:28;96247.22;;;10.60;100.00
57644;BME280;43474;46.510;6.686;2023-05-14T04:41:54;96255.34;;;10.70;100.00
57644;BME280;43474;46.510;6.686;2023-05-14T04:44:19;96262.25;;;10.71;100.00
57644;BME280;43474;46.510;6.686;2023-05-14T04:46:45;96259.34;;;10.73;100.00
57644;BME280;43474;46.510;6.686;2023-05-14T04:49:11;96256.94;;;10.71;100.00
57644;BME280;43474;46.510;6.686;2023-05-14T04:51:36;96247.22;;;10.77;100.00
57644;BME280;43474;46.510;6.686;2023-05-14T04:54:02;96258.88;;;10.76;100.00
57644;BME280;43474;46.510;6.686;2023-05-14T04:56:27;96262.00;;;10.90;100.00
57644;BME280;43474;46.510;6.686;2023-05-14T04:58:53;96262.00;;;10.90;100.00
57644;BME280;43474;46.510;6.686;2023-05-14T05:01:18;96252.59;;;10.82;100.00
57644;BME280;43474;46.510;6.686;2023-05-14T05:03:44;96266.25;;;10.91;100.00
57644;BME280;43474;46.510;6.686;2023-05-14T05:06:10;96264.41;;;10.91;100.00
57644;BME280;43474;46.510;6.686;2023-05-14T05:08:36;96255.25;;;10.82;100.00
57644;BME280;43474;46.510;6.686;2023-05-14T05:11:01;96258.22;;;10.85;100.00
57644;BME280;43474;46.510;6.686;2023-05-14T05:13:27;96263.84;;;10.89;100.00
57644;BME280;43474;46.510;6.686;2023-05-14T05:15:52;96256.69;;;10.90;100.00
57644;BME280;43474;46.510;6.686;2023-05-14T05:18:18;96261.09;;;10.84;100.00
57644;BME280;43474;46.510;6.686;2023-05-14T05:20:43;96265.75;;;10.94;100.00
57644;BME280;43474;46.510;6.686;2023-05-14T05:23:09;96248.16;;;10.87;100.00
57644;BME280;43474;46.510;6.686;2023-05-14T05:25:35;96259.97;;;10.97;100.00
57644;BME280;43474;46.510;6.686;2023-05-14T05:28:00;96269.94;;;11.06;100.00
57644;BME280;43474;46.510;6.686;2023-05-14T05:30:26;96254.19;;;11.00;100.00
57644;BME280;43474;46.510;6.686;2023-05-14T05:32:51;96261.34;;;10.99;100.00
57644;BME280;43474;46.510;6.686;2023-05-14T05:35:17;96264.38;;;11.08;100.00
57644;BME280;43474;46.510;6.686;2023-05-14T05:37:43;96255.28;;;11.04;100.00
57644;BME280;43474;46.510;6.686;2023-05-14T05:40:09;96261.56;;;11.15;100.00
57644;BME280;43474;46.510;6.686;2023-05-14T05:42:35;96267.44;;;11.17;100.00
57644;BME280;43474;46.510;6.686;2023-05-14T05:45:00;96263.97;;;11.16;100.00
57644;BME280;43474;46.510;6.686;2023-05-14T05:47:26;96254.72;;;11.19;100.00
57644;BME280;43474;46.510;6.686;2023-05-14T05:49:52;96270.63;;;11.35;100.00
57644;BME280;43474;46.510;6.686;2023-05-14T05:52:18;96268.69;;;11.31;100.00
57644;BME280;43474;46.510;6.686;2023-05-14T05:54:43;96282.75;;;11.31;100.00
57644;BME280;43474;46.510;6.686;2023-05-14T05:57:10;96277.44;;;11.31;100.00
57644;BME280;43474;46.510;6.686;2023-05-14T05:59:35;96265.84;;;11.37;100.00
57644;BME280;43474;46.510;6.686;2023-05-14T06:02:01;96260.09;;;11.24;100.00
57644;BME280;43474;46.510;6.686;2023-05-14T06:04:26;96261.78;;;11.30;100.00
57644;BME280;43474;46.510;6.686;2023-05-14T06:06:52;96277.13;;;11.28;100.00
57644;BME280;43474;46.510;6.686;2023-05-14T06:09:18;96271.09;;;11.32;100.00
57644;BME280;43474;46.510;6.686;2023-05-14T06:11:43;96272.75;;;11.38;100.00
57644;BME280;43474;46.510;6.686;2023-05-14T06:14:09;96267.72;;;11.37;100.00
57644;BME280;43474;46.510;6.686;2023-05-14T06:16:34;96260.53;;;11.37;100.00
57644;BME280;43474;46.510;6.686;2023-05-14T06:19:00;96262.31;;;11.49;100.00
57644;BME280;43474;46.510;6.686;2023-05-14T06:21:26;96261.91;;;11.40;100.00
57644;BME280;43474;46.510;6.686;2023-05-14T06:23:52;96255.81;;;11.39;100.00
57644;BME280;43474;46.510;6.686;2023-05-14T06:26:17;96256.91;;;11.44;100.00
57644;BME280;43474;46.510;6.686;2023-05-14T06:28:43;96275.06;;;11.52;100.00
57644;BME280;43474;46.510;6.686;2023-05-14T06:31:09;96268.72;;;11.53;100.00
57644;BME280;43474;46.510;6.686;2023-05-14T06:33:34;96276.31;;;11.66;100.00
57644;BME280;43474;46.510;6.686;2023-05-14T06:36:03;96280.88;;;11.71;100.00
57644;BME280;43474;46.510;6.686;2023-05-14T06:38:29;96276.44;;;11.76;100.00
57644;BME280;43474;46.510;6.686;2023-05-14T06:40:55;96261.63;;;11.80;100.00
57644;BME280;43474;46.510;6.686;2023-05-14T06:43:20;96271.66;;;11.78;100.00
57644;BME280;43474;46.510;6.686;2023-05-14T06:45:50;96274.56;;;11.94;100.00
57644;BME280;43474;46.510;6.686;2023-05-14T06:48:16;96278.88;;;12.00;100.00
57644;BME280;43474;46.510;6.686;2023-05-14T06:50:46;96270.28;;;11.93;100.00
57644;BME280;43474;46.510;6.686;2023-05-14T06:53:12;96282.94;;;12.07;100.00
57644;BME280;43474;46.510;6.686;2023-05-14T06:55:38;96280.00;;;12.04;100.00
57644;BME280;43474;46.510;6.686;2023-05-14T06:58:06;96278.13;;;12.04;100.00
57644;BME280;43474;46.510;6.686;2023-05-14T07:00:32;96281.22;;;11.96;100.00
57644;BME280;43474;46.510;6.686;2023-05-14T07:02:57;96288.69;;;11.99;100.00
57644;BME280;43474;46.510;6.686;2023-05-14T07:05:24;96273.19;;;11.91;100.00
57644;BME280;43474;46.510;6.686;2023-05-14T07:07:49;96290.03;;;12.02;100.00
57644;BME280;43474;46.510;6.686;2023-05-14T07:10:15;96286.69;;;12.11;100.00
57644;BME280;43474;46.510;6.686;2023-05-14T07:12:40;96270.56;;;12.18;100.00
57644;BME280;43474;46.510;6.686;2023-05-14T07:15:06;96278.75;;;12.38;100.00
57644;BME280;43474;46.510;6.686;2023-05-14T07:17:32;96273.75;;;12.47;100.00
57644;BME280;43474;46.510;6.686;2023-05-14T07:19:58;96266.91;;;12.51;100.00
57644;BME280;43474;46.510;6.686;2023-05-14T07:22:23;96259.19;;;12.50;100.00
57644;BME280;43474;46.510;6.686;2023-05-14T07:24:49;96265.09;;;12.57;100.00
57644;BME280;43474;46.510;6.686;2023-05-14T07:27:14;96276.06;;;12.65;100.00
57644;BME280;43474;46.510;6.686;2023-05-14T07:29:42;96262.25;;;12.63;100.00
57644;BME280;43474;46.510;6.686;2023-05-14T07:32:07;96267.78;;;12.62;100.00
57644;BME280;43474;46.510;6.686;2023-05-14T07:34:33;96277.22;;;12.75;100.00
57644;BME280;43474;46.510;6.686;2023-05-14T07:36:58;96256.50;;;12.82;100.00
57644;BME280;43474;46.510;6.686;2023-05-14T07:39:24;96261.00;;;13.13;100.00
57644;BME280;43474;46.510;6.686;2023-05-14T07:41:50;96264.50;;;13.66;100.00
57644;BME280;43474;46.510;6.686;2023-05-14T07:44:16;96256.53;;;13.71;100.00
57644;BME280;43474;46.510;6.686;2023-05-14T07:46:41;96261.69;;;13.88;100.00
57644;BME280;43474;46.510;6.686;2023-05-14T07:49:07;96264.41;;;14.04;100.00
57644;BME280;43474;46.510;6.686;2023-05-14T07:51:33;96264.75;;;14.28;100.00
57644;BME280;43474;46.510;6.686;2023-05-14T07:53:58;96255.94;;;14.27;100.00
57644;BME280;43474;46.510;6.686;2023-05-14T07:56:24;96252.75;;;14.45;100.00
57644;BME280;43474;46.510;6.686;2023-05-14T07:58:50;96257.88;;;14.62;100.00
57644;BME280;43474;46.510;6.686;2023-05-14T08:01:16;96238.63;;;14.45;100.00
57644;BME280;43474;46.510;6.686;2023-05-14T08:03:42;96242.13;;;14.76;100.00
57644;BME280;43474;46.510;6.686;2023-05-14T08:06:07;96245.59;;;15.02;100.00
57644;BME280;43474;46.510;6.686;2023-05-14T08:08:33;96243.69;;;15.33;100.00
57644;BME280;43474;46.510;6.686;2023-05-14T08:10:59;96251.53;;;15.89;100.00
57644;BME280;43474;46.510;6.686;2023-05-14T08:13:25;96243.00;;;15.87;100.00
57644;BME280;43474;46.510;6.686;2023-05-14T08:15:50;96230.44;;;15.88;100.00
57644;BME280;43474;46.510;6.686;2023-05-14T08:18:16;96249.72;;;16.29;100.00
57644;BME280;43474;46.510;6.686;2023-05-14T08:20:41;96236.81;;;16.41;100.00
57644;BME280;43474;46.510;6.686;2023-05-14T08:23:07;96252.22;;;16.54;100.00
57644;BME280;43474;46.510;6.686;2023-05-14T08:25:33;96250.22;;;16.75;100.00
57644;BME280;43474;46.510;6.686;2023-05-14T08:27:59;96240.34;;;16.71;100.00
57644;BME280;43474;46.510;6.686;2023-05-14T08:30:26;96236.91;;;16.21;100.00
57644;BME280;43474;46.510;6.686;2023-05-14T08:32:52;96251.03;;;16.37;100.00
57644;BME280;43474;46.510;6.686;2023-05-14T08:35:17;96253.75;;;16.66;100.00
57644;BME280;43474;46.510;6.686;2023-05-14T08:37:44;96242.41;;;16.84;100.00
57644;BME280;43474;46.510;6.686;2023-05-14T08:40:10;96259.72;;;17.26;100.00
57644;BME280;43474;46.510;6.686;2023-05-14T08:42:37;96247.97;;;18.37;97.79
57644;BME280;43474;46.510;6.686;2023-05-14T08:45:10;96224.88;;;17.98;100.00
57644;BME280;43474;46.510;6.686;2023-05-14T08:47:38;96231.00;;;18.60;95.69
57644;BME280;43474;46.510;6.686;2023-05-14T08:50:05;96213.13;;;19.76;86.63
57644;BME280;43474;46.510;6.686;2023-05-14T08:52:32;96182.75;;;19.48;80.28
57644;BME280;43474;46.510;6.686;2023-05-14T08:54:59;96202.94;;;20.95;77.38
57644;BME280;43474;46.510;6.686;2023-05-14T08:57:25;96229.75;;;20.55;76.74
57644;BME280;43474;46.510;6.686;2023-05-14T08:59:52;96214.59;;;19.41;75.49
57644;BME280;43474;46.510;6.686;2023-05-14T09:02:28;96200.44;;;20.40;71.08
57644;BME280;43474;46.510;6.686;2023-05-14T09:04:56;96223.72;;;22.23;73.06
57644;BME280;43474;46.510;6.686;2023-05-14T09:07:22;96214.06;;;22.91;65.21
57644;BME280;43474;46.510;6.686;2023-05-14T09:09:48;96204.41;;;23.37;67.21
57644;BME280;43474;46.510;6.686;2023-05-14T09:12:14;96208.34;;;23.48;64.24
57644;BME280;43474;46.510;6.686;2023-05-14T09:14:40;96181.81;;;22.68;58.97
57644;BME280;43474;46.510;6.686;2023-05-14T09:17:06;96210.16;;;21.17;64.28
57644;BME280;43474;46.510;6.686;2023-05-14T09:19:32;96198.75;;;20.44;74.82
57644;BME280;43474;46.510;6.686;2023-05-14T09:21:57;96210.50;;;19.98;74.72
57644;BME280;43474;46.510;6.686;2023-05-14T09:24:25;96214.53;;;19.59;76.31
57644;BME280;43474;46.510;6.686;2023-05-14T09:26:53;96221.50;;;19.14;81.64
57644;BME280;43474;46.510;6.686;2023-05-14T09:29:19;96221.50;;;18.11;79.93
57644;BME280;43474;46.510;6.686;2023-05-14T09:31:49;96222.75;;;17.52;87.08
57644;BME280;43474;46.510;6.686;2023-05-14T09:34:25;96205.06;;;17.51;94.02
57644;BME280;43474;46.510;6.686;2023-05-14T09:36:59;96197.22;;;17.54;94.67
57644;BME280;43474;46.510;6.686;2023-05-14T09:39:25;96220.00;;;17.57;98.29
57644;BME280;43474;46.510;6.686;2023-05-14T09:41:52;96198.44;;;17.43;99.84
57644;BME280;43474;46.510;6.686;2023-05-14T09:44:18;96208.19;;;17.58;98.42
57644;BME280;43474;46.510;6.686;2023-05-14T09:46:45;96202.28;;;18.04;96.06
57644;BME280;43474;46.510;6.686;2023-05-14T09:49:10;96213.38;;;18.16;92.09
57644;BME280;43474;46.510;6.686;2023-05-14T09:51:36;96217.78;;;18.45;96.85
57644;BME280;43474;46.510;6.686;2023-05-14T09:54:03;96201.50;;;20.17;91.87
57644;BME280;43474;46.510;6.686;2023-05-14T09:56:31;96200.94;;;19.23;90.58
57644;BME280;43474;46.510;6.686;2023-05-14T09:58:57;96182.00;;;20.11;88.36
57644;BME280;43474;46.510;6.686;2023-05-14T10:01:23;96198.66;;;20.94;84.86
57644;BME280;43474;46.510;6.686;2023-05-14T10:03:49;96210.63;;;21.41;91.80
57644;BME280;43474;46.510;6.686;2023-05-14T10:06:17;96194.09;;;21.83;80.28
57644;BME280;43474;46.510;6.686;2023-05-14T10:08:44;96198.34;;;21.66;77.03
57644;BME280;43474;46.510;6.686;2023-05-14T10:11:13;96205.00;;;20.03;85.59
57644;BME280;43474;46.510;6.686;2023-05-14T10:13:41;96212.19;;;19.53;86.32
57644;BME280;43474;46.510;6.686;2023-05-14T10:16:27;96206.06;;;19.66;87.63
57644;BME280;43474;46.510;6.686;2023-05-14T10:18:59;96194.31;;;20.26;84.23
57644;BME280;43474;46.510;6.686;2023-05-14T10:21:28;96193.88;;;19.96;84.89
57644;BME280;43474;46.510;6.686;2023-05-14T10:23:55;96200.97;;;20.87;80.60
57644;BME280;43474;46.510;6.686;2023-05-14T10:26:22;96182.03;;;21.72;83.63
57644;BME280;43474;46.510;6.686;2023-05-14T10:28:47;96199.94;;;22.25;68.72
57644;BME280;43474;46.510;6.686;2023-05-14T10:31:13;96198.16;;;21.63;65.83
57644;BME280;43474;46.510;6.686;2023-05-14T10:33:47;96208.97;;;21.01;76.08
57644;BME280;43474;46.510;6.686;2023-05-14T10:36:17;96202.63;;;20.38;77.10
57644;BME280;43474;46.510;6.686;2023-05-14T10:38:43;96192.75;;;20.47;75.06
57644;BME280;43474;46.510;6.686;2023-05-14T10:41:13;96192.38;;;20.40;72.32
57644;BME280;43474;46.510;6.686;2023-05-14T10:43:41;96190.31;;;19.87;80.18
57644;BME280;43474;46.510;6.686;2023-05-14T10:46:09;96189.69;;;19.07;82.56
57644;BME280;43474;46.510;6.686;2023-05-14T10:48:38;96191.56;;;19.07;80.60
57644;BME280;43474;46.510;6.686;2023-05-14T10:51:06;96192.69;;;19.33;82.20
57644;BME280;43474;46.510;6.686;2023-05-14T10:53:35;96192.47;;;19.99;80.72
57644;BME280;43474;46.510;6.686;2023-05-14T10:56:05;96187.25;;;19.80;73.45
57644;BME280;43474;46.510;6.686;2023-05-14T10:58:34;96163.66;;;20.49;71.06
57644;BME280;43474;46.510;6.686;2023-05-14T11:01:00;96177.69;;;22.19;71.85
57644;BME280;43474;46.510;6.686;2023-05-14T11:03:29;96164.28;;;21.88;61.50
57644;BME280;43474;46.510;6.686;2023-05-14T11:05:56;96181.06;;;20.97;68.30
57644;BME280;43474;46.510;6.686;2023-05-14T11:08:21;96177.94;;;20.00;69.46
57644;BME280;43474;46.510;6.686;2023-05-14T11:10:48;96173.06;;;19.33;71.95
57644;BME280;43474;46.510;6.686;2023-05-14T11:13:14;96166.47;;;20.67;74.04
57644;BME280;43474;46.510;6.686;2023-05-14T11:15:42;96161.53;;;21.53;69.96
57644;BME280;43474;46.510;6.686;2023-05-14T11:18:11;96153.09;;;22.29;61.82
57644;BME280;43474;46.510;6.686;2023-05-14T11:20:43;96131.59;;;22.07;63.60
57644;BME280;43474;46.510;6.686;2023-05-14T11:23:09;96155.16;;;22.15;62.78
57644;BME280;43474;46.510;6.686;2023-05-14T11:25:35;96136.56;;;22.39;59.32
57644;BME280;43474;46.510;6.686;2023-05-14T11:28:00;96155.16;;;22.24;57.76
57644;BME280;43474;46.510;6.686;2023-05-14T11:30:26;96144.66;;;21.39;67.66
57644;BME280;43474;46.510;6.686;2023-05-14T11:32:54;96157.78;;;20.70;70.60
57644;BME280;43474;46.510;6.686;2023-05-14T11:35:20;96160.84;;;21.48;68.03
57644;BME280;43474;46.510;6.686;2023-05-14T11:37:49;96154.34;;;22.14;66.67
57644;BME280;43474;46.510;6.686;2023-05-14T11:40:18;96151.13;;;22.73;66.64
57644;BME280;43474;46.510;6.686;2023-05-14T11:42:44;96138.78;;;22.46;66.81
57644;BME280;43474;46.510;6.686;2023-05-14T11:45:11;96155.63;;;21.51;64.68
57644;BME280;43474;46.510;6.686;2023-05-14T11:47:37;96139.06;;;20.64;68.02
57644;BME280;43474;46.510;6.686;2023-05-14T11:50:03;96152.22;;;19.94;66.03
57644;BME280;43474;46.510;6.686;2023-05-14T11:52:28;96150.47;;;19.48;71.64
57644;BME280;43474;46.510;6.686;2023-05-14T11:54:54;96132.38;;;19.12;71.48
57644;BME280;43474;46.510;6.686;2023-05-14T11:57:21;96153.56;;;19.14;75.28
57644;BME280;43474;46.510;6.686;2023-05-14T11:59:47;96143.59;;;18.87;76.84
57644;BME280;43474;46.510;6.686;2023-05-14T12:02:16;96150.75;;;18.91;78.78
57644;BME280;43474;46.510;6.686;2023-05-14T12:04:42;96149.72;;;18.73;78.02
57644;BME280;43474;46.510;6.686;2023-05-14T12:07:10;96135.66;;;18.63;75.32
57644;BME280;43474;46.510;6.686;2023-05-14T12:09:42;96138.31;;;18.81;75.12
57644;BME280;43474;46.510;6.686;2023-05-14T12:12:13;96131.34;;;18.94;74.31
57644;BME280;43474;46.510;6.686;2023-05-14T12:14:40;96143.34;;;19.16;78.31
57644;BME280;43474;46.510;6.686;2023-05-14T12:17:17;96132.19;;;19.22;80.71
57644;BME280;43474;46.510;6.686;2023-05-14T12:19:46;96131.88;;;19.51;76.11
57644;BME280;43474;46.510;6.686;2023-05-14T12:22:17;96135.16;;;19.07;74.75
57644;BME280;43474;46.510;6.686;2023-05-14T12:24:52;96138.63;;;18.61;71.63
57644;BME280;43474;46.510;6.686;2023-05-14T12:27:21;96140.47;;;18.79;72.14
57644;BME280;43474;46.510;6.686;2023-05-14T12:29:47;96147.53;;;18.43;71.95
57644;BME280;43474;46.510;6.686;2023-05-14T12:32:13;96150.75;;;18.58;78.68
57644;BME280;43474;46.510;6.686;2023-05-14T12:34:39;96147.13;;;18.68;80.45
57644;BME280;43474;46.510;6.686;2023-05-14T12:37:05;96151.13;;;18.71;81.64
57644;BME280;43474;46.510;6.686;2023-05-14T12:39:32;96144.09;;;18.56;79.44
57644;BME280;43474;46.510;6.686;2023-05-14T12:41:58;96126.09;;;18.24;72.63
57644;BME280;43474;46.510;6.686;2023-05-14T12:44:23;96132.47;;;18.28;76.10
57644;BME280;43474;46.510;6.686;2023-05-14T12:46:49;96134.28;;;18.14;80.38
57644;BME280;43474;46.510;6.686;2023-05-14T12:49:15;96117.69;;;18.12;76.59
57644;BME280;43474;46.510;6.686;2023-05-14T12:51:40;96131.19;;;18.39;85.06
57644;BME280;43474;46.510;6.686;2023-05-14T12:54:06;96129.09;;;18.55;71.37
57644;BME280;43474;46.510;6.686;2023-05-14T12:56:31;96124.00;;;18.53;75.93
57644;BME280;43474;46.510;6.686;2023-05-14T12:58:57;96121.19;;;18.77;76.14